| time (UTC) | temp F | wind direction | speed knots | gust knots | rain 1hr in | rain 24hr in | rain mn in | humidity % | barometer mb |
| 20260510064525 | 49 | 306 | 0.0 | 0.0 | 0.00 | 0.00 | 0.00 | 50 | 1021.4 |
| 20260510063029 | 51 | 112 | 0.0 | 0.0 | 0.00 | 0.00 | 0.00 | 46 | 1021.3 |
| 20260510061526 | 51 | 46 | 0.0 | 5.2 | 0.00 | 0.00 | 0.00 | 46 | 1021.2 |
| 20260510060006 | 51 | 109 | 3.5 | 6.1 | 0.00 | 0.00 | 0.00 | 45 | 1021.2 |
| 20260510054535 | 52 | 109 | 5.2 | 7.0 | 0.00 | 0.00 | 0.00 | 45 | 1021.0 |
| 20260510053014 | 51 | 110 | 5.2 | 6.1 | 0.00 | 0.00 | 0.00 | 45 | 1021.1 |
| 20260510051529 | 52 | 116 | 5.2 | 6.1 | 0.00 | 0.00 | 0.00 | 45 | 1021.1 |
| 20260510050026 | 52 | 107 | 5.2 | 7.0 | 0.00 | 0.00 | 0.00 | 45 | 1021.2 |
| 20260510044523 | 52 | 104 | 5.2 | 7.0 | 0.00 | 0.00 | 0.00 | 45 | 1021.0 |
| 20260510043020 | 52 | 108 | 5.2 | 6.1 | 0.00 | 0.00 | 0.00 | 45 | 1021.0 |
| 20260510041516 | 52 | 106 | 5.2 | 7.0 | 0.00 | 0.00 | 0.00 | 45 | 1020.8 |
| 20260510040023 | 52 | 114 | 5.2 | 7.8 | 0.00 | 0.00 | 0.00 | 45 | 1020.7 |
| 20260510034522 | 52 | 116 | 5.2 | 7.0 | 0.00 | 0.00 | 0.00 | 45 | 1020.6 |
| 20260510033010 | 52 | 110 | 5.2 | 7.0 | 0.00 | 0.00 | 0.00 | 45 | 1020.4 |
| 20260510031512 | 52 | 103 | 4.3 | 6.1 | 0.00 | 0.00 | 0.00 | 45 | 1020.1 |
| 20260510030020 | 53 | 107 | 4.3 | 6.1 | 0.00 | 0.00 | 0.00 | 45 | 1020.1 |
| 20260510024520 | 54 | 103 | 2.6 | 3.5 | 0.00 | 0.00 | 0.00 | 43 | 1020.0 |
| 20260510023026 | 58 | 106 | 0.9 | 1.7 | 0.00 | 0.00 | 0.00 | 37 | 1019.9 |
| 20260510021516 | 59 | 84 | 0.9 | 1.7 | 0.00 | 0.00 | 0.00 | 34 | 1019.8 |
| 20260510020016 | 59 | 80 | 0.9 | 1.7 | 0.00 | 0.00 | 0.00 | 36 | 1019.8 |
| 20260510014521 | 60 | 73 | 0.0 | 1.7 | 0.00 | 0.00 | 0.00 | 33 | 1019.8 |
| 20260510013024 | 61 | 77 | 0.9 | 1.7 | 0.00 | 0.00 | 0.00 | 34 | 1019.7 |
| 20260510011529 | 61 | 66 | 0.0 | 1.7 | 0.00 | 0.00 | 0.00 | 35 | 1019.6 |
| 20260510010016 | 61 | 16 | 0.0 | 1.7 | 0.00 | 0.00 | 0.00 | 37 | 1019.8 |
| 20260510004520 | 63 | 348 | 1.7 | 4.3 | 0.00 | 0.00 | 0.00 | 33 | 1019.9 |
| 20260510003024 | 62 | 93 | 0.9 | 3.5 | 0.00 | 0.00 | 0.00 | 32 | 1020.0 |
| 20260510001529 | 63 | 331 | 1.7 | 3.5 | 0.00 | 0.00 | 0.00 | 33 | 1019.8 |
| 20260510000027 | 63 | 317 | 1.7 | 3.5 | 0.00 | 0.00 | 0.00 | 31 | 1019.6 |
| 20260509234520 | 62 | 347 | 3.5 | 7.0 | 0.00 | 0.00 | 0.00 | 31 | 1019.7 |
| 20260509233019 | 63 | 315 | 1.7 | 5.2 | 0.00 | 0.00 | 0.00 | 31 | 1019.7 |
| 20260509231526 | 62 | 269 | 3.5 | 6.1 | 0.00 | 0.00 | 0.00 | 32 | 1019.6 |
| 20260509230027 | 62 | 72 | 0.9 | 7.8 | 0.00 | 0.00 | 0.00 | 30 | 1019.7 |
| 20260509224528 | 62 | 326 | 2.6 | 7.0 | 0.00 | 0.00 | 0.00 | 31 | 1019.8 |
| 20260509223020 | 62 | 75 | 1.7 | 7.0 | 0.00 | 0.00 | 0.00 | 32 | 1019.8 |
| 20260509221529 | 61 | 360 | 3.5 | 7.0 | 0.00 | 0.00 | 0.00 | 36 | 1019.9 |
| 20260509220025 | 61 | 59 | 1.7 | 3.5 | 0.00 | 0.00 | 0.00 | 34 | 1020.0 |
| 20260509214526 | 61 | 347 | 1.7 | 4.3 | 0.00 | 0.00 | 0.00 | 39 | 1020.0 |
| 20260509213028 | 61 | 317 | 2.6 | 10.4 | 0.00 | 0.00 | 0.00 | 37 | 1020.1 |
| 20260509211509 | 62 | 352 | 2.6 | 4.3 | 0.00 | 0.00 | 0.00 | 35 | 1020.0 |
| 20260509210005 | 62 | 360 | 2.6 | 7.8 | 0.00 | 0.00 | 0.00 | 38 | 1019.9 |
| 20260509204505 | 61 | 346 | 5.2 | 11.3 | 0.00 | 0.00 | 0.00 | 38 | 1019.7 |
| 20260509203008 | 61 | 338 | 0.9 | 7.8 | 0.00 | 0.00 | 0.00 | 33 | 1019.9 |
| 20260509201503 | 61 | 325 | 1.7 | 4.3 | 0.00 | 0.00 | 0.00 | 32 | 1019.8 |
| 20260509200004 | 60 | 308 | 2.6 | 8.7 | 0.00 | 0.00 | 0.00 | 33 | 1019.8 |
| 20260509194504 | 60 | 260 | 2.6 | 9.6 | 0.00 | 0.00 | 0.00 | 35 | 1020.0 |
| 20260509193006 | 60 | 286 | 6.1 | 9.6 | 0.00 | 0.00 | 0.00 | 36 | 1020.0 |
| 20260509191503 | 58 | 111 | 0.9 | 6.1 | 0.00 | 0.00 | 0.00 | 40 | 1020.0 |
| 20260509190002 | 57 | 311 | 4.3 | 7.8 | 0.00 | 0.00 | 0.00 | 37 | 1020.1 |
| 20260509184511 | 58 | 290 | 6.1 | 9.6 | 0.00 | 0.00 | 0.00 | 38 | 1020.0 |
| 20260509183003 | 59 | 268 | 3.5 | 9.6 | 0.00 | 0.00 | 0.00 | 38 | 1020.0 |
| 20260509181507 | 57 | 261 | 1.7 | 7.0 | 0.00 | 0.00 | 0.00 | 34 | 1020.0 |
| 20260509180003 | 57 | 305 | 0.0 | 2.6 | 0.00 | 0.00 | 0.00 | 41 | 1020.1 |
| 20260509174509 | 57 | 52 | 2.6 | 8.7 | 0.00 | 0.00 | 0.00 | 40 | 1020.1 |
| 20260509173026 | 56 | 296 | 1.7 | 11.3 | 0.00 | 0.00 | 0.00 | 38 | 1020.1 |
| 20260509171518 | 55 | 316 | 3.5 | 10.4 | 0.00 | 0.00 | 0.00 | 39 | 1020.1 |
| 20260509170013 | 56 | 284 | 4.3 | 10.4 | 0.00 | 0.00 | 0.00 | 37 | 1020.0 |
| 20260509164506 | 55 | 296 | 1.7 | 9.6 | 0.00 | 0.00 | 0.00 | 37 | 1020.1 |
| 20260509163016 | 55 | 286 | 0.9 | 10.4 | 0.00 | 0.00 | 0.00 | 43 | 1020.1 |
| 20260509161508 | 54 | 303 | 3.5 | 10.4 | 0.00 | 0.00 | 0.00 | 41 | 1020.1 |
| 20260509160011 | 54 | 319 | 2.6 | 5.2 | 0.00 | 0.00 | 0.00 | 39 | 1020.0 |
| 20260509154511 | 54 | 346 | 0.9 | 6.1 | 0.00 | 0.00 | 0.00 | 44 | 1020.0 |
| 20260509153009 | 52 | 294 | 1.7 | 3.5 | 0.00 | 0.00 | 0.00 | 44 | 1020.0 |
| 20260509151508 | 50 | 302 | 1.7 | 2.6 | 0.00 | 0.00 | 0.00 | 48 | 1019.9 |
| 20260509150012 | 49 | 352 | 0.9 | 1.7 | 0.00 | 0.00 | 0.00 | 48 | 1019.8 |
| 20260509144510 | 48 | 294 | 0.9 | 1.7 | 0.00 | 0.00 | 0.00 | 52 | 1019.8 |
| 20260509143016 | 48 | 240 | 0.0 | 2.6 | 0.00 | 0.00 | 0.00 | 55 | 1019.6 |
| 20260509141507 | 47 | 248 | 0.9 | 2.6 | 0.00 | 0.00 | 0.00 | 53 | 1019.5 |
| 20260509140015 | 48 | 215 | 1.7 | 2.6 | 0.00 | 0.00 | 0.00 | 50 | 1019.4 |
| 20260509134512 | 49 | 227 | 0.0 | 0.0 | 0.00 | 0.00 | 0.00 | 50 | 1019.3 |
| 20260509133014 | 46 | 116 | 1.7 | 2.6 | 0.00 | 0.00 | 0.00 | 54 | 1019.3 |
| 20260509131514 | 41 | 108 | 2.6 | 3.5 | 0.00 | 0.00 | 0.00 | 59 | 1019.2 |
| 20260509130039 | 40 | 116 | 2.6 | 3.5 | 0.00 | 0.00 | 0.00 | 62 | 1019.0 |
| 20260509124529 | 42 | 153 | 3.5 | 5.2 | 0.00 | 0.00 | 0.00 | 58 | 1018.8 |
| 20260509123016 | 44 | 107 | 0.9 | 2.6 | 0.00 | 0.00 | 0.00 | 55 | 1018.4 |
| 20260509121506 | 44 | 352 | 0.0 | 1.7 | 0.00 | 0.00 | 0.00 | 53 | 1018.4 |
| 20260509120013 | 44 | 36 | 0.9 | 2.6 | 0.00 | 0.00 | 0.00 | 56 | 1018.2 |
| 20260509114518 | 43 | 108 | 1.7 | 2.6 | 0.00 | 0.00 | 0.00 | 62 | 1018.1 |
| 20260509113018 | 44 | 112 | 0.9 | 1.7 | 0.00 | 0.00 | 0.00 | 62 | 1018.0 |
| 20260509111518 | 42 | 161 | 0.0 | 4.3 | 0.00 | 0.00 | 0.00 | 67 | 1017.8 |
| 20260509110009 | 41 | 113 | 2.6 | 5.2 | 0.00 | 0.00 | 0.00 | 70 | 1017.7 |
| 20260509104508 | 43 | 150 | 1.7 | 3.5 | 0.00 | 0.00 | 0.00 | 60 | 1017.6 |
| 20260509103014 | 45 | 5 | 0.0 | 0.0 | 0.00 | 0.00 | 0.00 | 53 | 1017.5 |
| 20260509101529 | 43 | 105 | 0.0 | 0.0 | 0.00 | 0.00 | 0.00 | 57 | 1017.3 |
| 20260509100020 | 43 | 117 | 0.0 | 0.0 | 0.00 | 0.00 | 0.00 | 62 | 1017.2 |
| 20260509094513 | 42 | 117 | 0.0 | 0.0 | 0.00 | 0.00 | 0.00 | 65 | 1017.1 |
| 20260509093012 | 43 | 118 | 0.0 | 1.7 | 0.00 | 0.00 | 0.00 | 64 | 1017.0 |
| 20260509091519 | 47 | 37 | 0.9 | 1.7 | 0.00 | 0.00 | 0.00 | 59 | 1016.7 |
| 20260509090022 | 47 | 327 | 0.0 | 1.7 | 0.00 | 0.00 | 0.00 | 59 | 1016.4 |
| 20260509084527 | 47 | 56 | 0.0 | 0.0 | 0.00 | 0.00 | 0.00 | 59 | 1016.2 |
| 20260509083012 | 48 | 38 | 0.0 | 0.0 | 0.00 | 0.00 | 0.00 | 57 | 1016.0 |
| 20260509081517 | 48 | 53 | 0.0 | 2.6 | 0.00 | 0.00 | 0.00 | 57 | 1016.1 |
| 20260509080021 | 49 | 65 | 0.0 | 1.7 | 0.00 | 0.00 | 0.00 | 56 | 1015.9 |
| 20260509074524 | 49 | 335 | 0.0 | 0.0 | 0.00 | 0.00 | 0.00 | 56 | 1015.7 |
| 20260509073026 | 50 | 335 | 0.0 | 0.0 | 0.00 | 0.00 | 0.00 | 54 | 1015.6 |
| 20260509071513 | 50 | 342 | 0.0 | 0.0 | 0.00 | 0.00 | 0.00 | 54 | 1015.4 |
| 20260509070027 | 50 | 65 | 0.0 | 1.7 | 0.00 | 0.00 | 0.00 | 54 | 1015.3 |